Moapa Valley, Nevada Weather observations

Data are for 10 minute period ending at time listed.
 Day   Time   Solar   Ave.   Ave.  Ave.  Vector  Max.   Baro.   Total    
  of    of     Rad.   Air    Rel.  Wind   Wind   Wind  Press.  Precip.   
Year   Day            Temp.  Hum.  Speed  Dir.   Gust                    
2016   (PST)  Kw/m2    F      %     mph   deg.    mph    mb.     in.     
-------------------------------------------------------------------------
 207   18:20   0.07   99.2    24    4.1   122     5.6   960.0    0.00 
 207   18:30   0.05   98.7    24    3.6   117     4.6   960.0    0.00 
 207   18:40   0.03   98.5    24    3.8   114     4.9   960.0    0.00 
 207   18:50   0.01   98.6    22    3.8   123     5.6   960.1    0.00 
 207   19:00   0.01  100.1    20    5.2   139     9.9   960.1    0.00 
 207   19:10   0.00  102.1    18    5.7   146     9.6   960.1    0.00 
 207   19:20   0.00  101.9    18    4.9   142     7.8   960.2    0.00 
 207   19:30   0.00  100.5    20    4.1   129     6.7   960.3    0.00 
 207   19:40   0.00   98.8    21    3.8   102     5.3   960.4    0.00 
 207   19:50   0.00   96.6    23    3.7   110     4.9   960.5    0.00 
 207   20:00   0.00   96.5    24    3.6   110     4.2   960.7    0.00 
 207   20:10   0.00   96.7    23    4.1   124     8.8   960.8    0.00 
 207   20:20   0.00   99.7    20    4.9   156     7.4   961.0    0.00 
 207   20:30   0.00  101.2    18    5.6   164     8.8   961.1    0.00 
 207   20:40   0.00  101.2    18    5.6   158    10.3   961.2    0.00 
 207   20:50   0.00  101.2    18    5.7   146     8.8   961.3    0.00 
 207   21:00   0.00  100.3    19    7.9   136    14.2   961.4    0.00 
 207   21:10   0.00   99.8    20    6.6   142    10.6   961.4    0.00 
 207   21:20   0.00   98.7    22    6.0   140     9.6   961.5    0.00 
 207   21:30   0.00   98.2    23    6.7   142    10.3   961.6    0.00 
 207   21:40   0.00   97.0    24    5.3   120     8.5   961.6    0.00 
 207   21:50   0.00   94.9    26    4.7   111     7.1   961.7    0.00 
 207   22:00   0.00   94.9    26    5.5   107     7.8   961.8    0.00 
 207   22:10   0.00   95.8    24    6.4   117    10.3   961.8    0.00 
 207   22:20   0.00   95.0    25    5.4   125     8.1   962.0    0.00 
 207   22:30   0.00   94.5    26    5.2   136     8.5   962.0    0.00 
 207   22:40   0.00   94.4    26    4.6   135     7.4   962.1    0.00 
 207   22:50   0.00   93.7    27    3.7   132     6.3   962.1    0.00 
 207   23:00   0.00   92.4    28    3.1   109     4.2   962.1    0.00 
 207   23:10   0.00   91.2    30    3.2    95     4.2   962.0    0.00 
 207   23:20   0.00   90.2    31    3.2   100     4.6   962.0    0.00 
 207   23:30   0.00   89.7    32    3.3    95     4.2   962.0    0.00 
 207   23:40   0.00   89.8    32    3.5    95     4.6   962.0    0.00 
 207   23:50   0.00   89.9    31    4.0   110     5.6   962.1    0.00 
 208    0:00   0.00   90.4    30    3.8   109     6.3   962.1    0.00 
 208    0:10   0.00   89.8    31    3.2   105     4.6   962.1    0.00 
 208    0:20   0.00   88.8    33    2.3   104     3.8   962.3    0.00 
 208    0:30   0.00   89.0    32    3.7   103     5.3   962.3    0.00 
 208    0:40   0.00   89.2    32    3.2   130     4.6   962.4    0.00 
 208    0:50   0.00   88.6    33    1.7   157     2.8   962.4    0.00 
 208    1:00   0.00   88.5    32    0.4   100     1.3   962.5    0.00 
 208    1:10   0.00   88.2    33    1.1   118     1.7   962.5    0.00 
 208    1:20   0.00   87.8    33    1.1   104     1.7   962.5    0.00 
 208    1:30   0.00   86.5    35    0.1   175     1.0   962.6    0.00 
 208    1:40   0.00   85.4    36    1.7   327     3.5   962.7    0.00 
 208    1:50   0.00   83.7    41    3.3   355     3.8   962.8    0.00 
 208    2:00   0.00   82.1    45    2.6     7     3.5   962.9    0.00 
 208    2:10   0.00   81.4    44    2.7   313     3.5   963.0    0.00 
 208    2:20   0.00   82.6    40    3.2   289     3.8   963.0    0.00 
 208    2:30   0.00   81.5    43    2.3   271     2.8   963.1    0.00 
 208    2:40   0.00   80.5    46    1.9   293     2.4   963.1    0.00 
 208    2:50   0.00   80.6    47    1.9   334     2.8   963.1    0.00 
 208    3:00   0.00   80.0    48    2.1   334     3.1   963.1    0.00 
 208    3:10   0.00   78.9    52    1.8   310     3.1   963.1    0.00 
 208    3:20   0.00   79.3    50    1.4   302     2.8   963.3    0.00 
 208    3:30   0.00   80.3    45    1.4   286     2.4   963.4    0.00 
 208    3:40   0.00   79.2    48    1.3   265     3.1   963.5    0.00 
 208    3:50   0.00   79.2    48    1.4   285     2.4   963.5    0.00 
 208    4:00   0.00   79.0    48    1.7   338     2.4   963.5    0.00 
 208    4:10   0.00   79.4    46    1.7   340     3.1   963.7    0.00 
 208    4:20   0.00   79.2    45    2.4   290     3.1   963.8    0.00 
 208    4:30   0.00   78.4    50    1.0   289     2.4   963.9    0.00 
 208    4:40   0.00   77.5    48    2.2   268     2.8   964.0    0.00 
 208    4:50   0.01   78.3    48    1.0   253     2.1   964.1    0.00 
 208    5:00   0.01   77.5    50    0.8   294     2.1   964.3    0.00 
 208    5:10   0.04   78.5    47    2.2   284     3.8   964.5    0.00 
 208    5:20   0.06   78.3    52    1.9   315     4.6   964.6    0.00 
 208    5:30   0.09   79.4    52    1.2   345     2.8   964.6    0.00 
 208    5:40   0.12   81.6    49    1.5   272     3.1   964.6    0.00 
 208    5:50   0.15   82.6    46    1.5   297     2.8   964.7    0.00 
 208    6:00   0.19   84.4    46    2.0   325     3.1   964.9    0.00 
 208    6:10   0.23   85.4    42    3.0   305     4.2   964.9    0.00 
 208    6:20   0.26   87.2    43    1.6   318     3.5   965.0    0.00 
 208    6:30   0.30   88.9    39    1.8   319     3.5   965.0    0.00 
 208    6:40   0.34   89.3    38    2.6   324     3.8   965.2    0.00 
 208    6:50   0.38   90.5    37    2.2   289     3.1   965.2    0.00 
 208    7:00   0.42   92.8    31    2.6   290     3.5   965.2    0.00 
 208    7:10   0.46   93.6    32    2.8   282     3.8   965.3    0.00 
 208    7:20   0.50   94.2    32    2.3   300     3.8   965.3    0.00 
 208    7:30   0.53   95.9    28    2.0   291     3.1   965.4    0.00 
 208    7:40   0.57   96.7    27    2.4   287     3.8   965.3    0.00 
 208    7:50   0.61   97.5    25    0.9   104     2.4   965.3    0.00 
 208    8:00   0.65   98.9    26    0.5   119     2.4   965.3    0.00 
 208    8:10   0.69   99.7    28    0.4   189     1.3   965.2    0.00 
 208    8:20   0.72  100.3    26    0.5     8     2.1   965.2    0.00 
 208    8:30   0.76   99.9    26    1.3   294     3.5   965.2    0.00 
 208    8:40   0.79   99.8    32    1.8   108     4.2   965.2    0.00 
 208    8:50   0.82   98.9    29    1.9   124     3.1   965.2    0.00 
 208    9:00   0.85   99.0    30    2.4   105     4.9   965.2    0.00 
 208    9:10   0.88  100.2    28    1.9   104     3.5   965.1    0.00 
 208    9:20   0.91   99.6    29    3.0   116     6.7   965.1    0.00 
 208    9:30   0.93   99.5    27    3.5   102     6.3   965.0    0.00 
 208    9:40   0.96  101.1    27    1.6   311     2.8   965.0    0.00 
 208    9:50   0.98  101.7    27    1.8   149     3.1   965.0    0.00 
 208   10:00   1.00  102.3    26    1.9   133     4.6   964.9    0.00 
 208   10:10   1.02  101.4    25    3.9    91     8.1   964.8    0.00 
 208   10:20   1.04  101.4    26    3.2   175     6.7   964.7    0.00 
 208   10:30   1.05  101.5    26    3.4    78     7.8   964.5    0.00 
 208   10:40   1.07  102.1    27    3.5   103     6.3   964.4    0.00 
 208   10:50   1.08  101.2    27    2.9   172     5.6   964.2    0.00 
 208   11:00   1.09  104.6    24    1.7   132     3.8   964.0    0.00 
 208   11:10   1.10  103.2    28    3.1   138     5.6   963.8    0.00 
 208   11:20   1.11  103.5    21    3.4    80     6.3   963.6    0.00 
 208   11:30   1.12  103.9    25    2.9    64     4.9   963.4    0.00 
 208   11:40   1.12  103.7    24    2.7    87     5.6   963.2    0.00 
 208   11:50   1.12  105.6    21    1.9   102     3.1   963.1    0.00 
 208   12:00   1.11  105.5    21    4.8    65     8.8   962.8    0.00 
 208   12:10   1.11  103.1    25    5.5   113     9.9   962.6    0.00 
 208   12:20   1.11  103.6    24    4.9   118     8.8   962.6    0.00 
 208   12:30   1.10  104.9    21    3.6   123     8.1   962.4    0.00 
 208   12:40   1.09  107.3    20    3.0    96     8.5   962.1    0.00 
 208   12:50   1.08  104.8    25    4.3   124     7.8   962.0    0.00 
 208   13:00   1.07  104.9    26    3.3   149     8.1   961.8    0.00 
 208   13:10   1.05  107.2    20    2.9   175     5.3   961.7    0.00 
 208   13:20   1.04  108.2    19    2.8   245     8.5   961.6    0.00 
 208   13:30   1.02  108.1    20    3.1    50     6.7   961.5    0.00 
 208   13:40   1.00  106.7    24    3.6   118     7.4   961.3    0.00 
 208   13:50   0.98  106.7    20    4.8    84    10.3   961.1    0.00 
 208   14:00   0.95  105.3    21    5.6   107     8.1   960.9    0.00 
 208   14:10   0.93  108.2    18    2.6   127     5.3   960.7    0.00 
 208   14:20   0.90  107.3    19    3.5   123     7.8   960.6    0.00 
 208   14:30   0.87  107.5    18    4.0    91     8.1   960.4    0.00 
 208   14:40   0.84  109.6    18    1.0   116     4.2   960.2    0.00 
 208   14:50   0.82  107.9    20    3.9   177     8.1   960.1    0.00 
 208   15:00   0.78  107.3    18    4.8   192     8.1   960.0    0.00 
 208   15:10   0.75  108.0    17    6.8   204    14.2   959.9    0.00 
 208   15:20   0.71  106.7    22    2.7   110     7.1   959.8    0.00 
 208   15:30   0.68  105.6    21    4.9   114     8.1   959.7    0.00 
 208   15:40   0.64  108.1    20    2.5    45     4.2   959.6    0.00 
 208   15:50   0.60  109.1    20    1.6    40     2.4   959.5    0.00 
 208   16:00   0.57  108.9    18    3.0   103     6.7   959.4    0.00 
 208   16:10   0.53  105.9    22    3.8   108     6.0   959.3    0.00 
 208   16:20   0.49  105.0    22    4.2   125     6.0   959.2    0.00 
 208   16:30   0.45  105.4    23    3.7   108     5.6   959.2    0.00 
 208   16:40   0.40  104.4    22    4.6   110     6.0   959.1    0.00 
 208   16:50   0.36  103.7    24    4.1   115     6.0   959.0    0.00 
 208   17:00   0.32  104.8    22    3.9   119     4.9   958.9    0.00 
 208   17:10   0.28  104.4    22    4.0   116     5.3   958.9    0.00 
 208   17:20   0.25  104.3    21    4.4   110     6.0   958.8    0.00 
 208   17:30   0.21  104.1    20    3.6   112     4.9   958.9    0.00 
 208   17:40   0.17  103.9    22    3.6   117     4.6   958.9    0.00 
 208   17:50   0.07  102.8    22    4.1   117     5.6   959.1    0.00 
 208   18:00   0.07  101.8    22    3.8   125     4.9   959.1    0.00 
 208   18:10   0.09  102.7    20    3.4   116     4.9   959.1    0.00 

Return to Moapa Valley graphs page.


Western Regional Climate Center,wrcc@dri.edu